Time;durP1;ratioP1;P1;durP2;ratioP2;P2;SDS_P1;SDS_P2;PMS_P1;PMS_P2;Temp;Humidity;BMP_temperature;BMP_pressure;BME280_temperature;BME280_humidity;BME280_pressure;Samples;Min_cycle;Max_cycle;Signal;HPM_P1;HPM_P2
2023/07/06 00:03:32;;;;;;;5.55;1.40;;;;;;;;;;10332945;28;20040;-59
2023/07/06 00:08:33;;;;;;;6.18;1.95;;;;;;;;;;10337269;28;20093;-59
2023/07/06 00:13:34;;;;;;;6.40;1.80;;;;;;;;;;10342165;28;20442;-59
2023/07/06 00:18:48;;;;;;;1.63;1.52;;;;;;;;;;10352391;28;20053;-58
2023/07/06 00:23:50;;;;;;;4.63;1.80;;;;;;;;;;10340537;28;20081;-57
2023/07/06 00:28:51;;;;;;;4.00;1.73;;;;;;;;;;10355877;28;20054;-58
2023/07/06 00:33:52;;;;;;;3.03;1.50;;;;;;;;;;10334547;28;20461;-60
2023/07/06 00:38:52;;;;;;;10.10;1.55;;;;;;;;;;10354054;28;20042;-59
2023/07/06 00:43:55;;;;;;;5.60;1.70;;;;;;;;;;10338720;28;20434;-58
2023/07/06 00:49:06;;;;;;;2.08;1.35;;;;;;;;;;10356084;28;20212;-58
2023/07/06 00:54:12;;;;;;;4.47;1.52;;;;;;;;;;10345818;28;20500;-58
2023/07/06 00:59:19;;;;;;;1.55;1.45;;;;;;;;;;10345446;28;20482;-57
2023/07/06 01:04:20;;;;;;;2.75;1.38;;;;;;;;;;10339902;28;20060;-57
2023/07/06 01:09:21;;;;;;;1.58;1.20;;;;;;;;;;10347213;28;20034;-57
2023/07/06 01:14:22;;;;;;;1.60;1.17;;;;;;;;;;10352052;28;20091;-58
2023/07/06 01:19:44;;;;;;;2.67;1.20;;;;;;;;;;10341235;28;20076;-58
2023/07/06 01:25:25;;;;;;;4.95;1.40;;;;;;;;;;10350062;28;20022;-58
2023/07/06 01:31:36;;;;;;;2.50;1.38;;;;;;;;;;10350345;28;20088;-58
2023/07/06 01:37:12;;;;;;;2.60;1.52;;;;;;;;;;10364177;28;20046;-58
2023/07/06 01:42:25;;;;;;;1.87;1.40;;;;;;;;;;10332661;28;20026;-60
2023/07/06 01:47:28;;;;;;;1.55;1.02;;;;;;;;;;10357153;28;20050;-60
2023/07/06 01:52:39;;;;;;;5.20;1.50;;;;;;;;;;10347606;28;20124;-60
2023/07/06 01:57:49;;;;;;;2.28;1.40;;;;;;;;;;10350732;28;20034;-59
2023/07/06 02:02:53;;;;;;;4.13;1.10;;;;;;;;;;10352316;28;20347;-59
2023/07/06 02:07:54;;;;;;;1.77;1.35;;;;;;;;;;10344545;28;20045;-58
2023/07/06 02:12:55;;;;;;;2.80;1.60;;;;;;;;;;10345644;28;20026;-58
2023/07/06 02:17:56;;;;;;;1.63;1.20;;;;;;;;;;10341994;28;20030;-57
2023/07/06 02:22:57;;;;;;;1.60;1.27;;;;;;;;;;10350349;28;20112;-58
2023/07/06 02:27:57;;;;;;;2.00;1.27;;;;;;;;;;10327187;28;20026;-58
2023/07/06 02:32:59;;;;;;;6.45;1.50;;;;;;;;;;10341893;28;20100;-58
2023/07/06 02:38:00;;;;;;;2.25;1.10;;;;;;;;;;10346223;28;20207;-58
2023/07/06 02:43:01;;;;;;;2.35;1.40;;;;;;;;;;10340951;28;20469;-59
2023/07/06 02:48:04;;;;;;;4.85;1.33;;;;;;;;;;10339696;28;20054;-59
2023/07/06 02:53:04;;;;;;;8.63;1.08;;;;;;;;;;10344425;28;20383;-58
2023/07/06 02:58:05;;;;;;;2.08;1.10;;;;;;;;;;10340426;28;20030;-58
2023/07/06 03:03:08;;;;;;;1.20;1.02;;;;;;;;;;10340236;28;20030;-58
2023/07/06 03:08:08;;;;;;;1.20;1.10;;;;;;;;;;10328167;28;20030;-58
2023/07/06 03:13:09;;;;;;;3.30;1.42;;;;;;;;;;10341703;28;20386;-58
2023/07/06 03:18:09;;;;;;;2.35;1.00;;;;;;;;;;10347674;28;20026;-58
2023/07/06 03:23:10;;;;;;;2.92;1.20;;;;;;;;;;10350801;28;20041;-57
2023/07/06 03:28:11;;;;;;;3.45;1.33;;;;;;;;;;10341633;28;20153;-58
2023/07/06 03:33:12;;;;;;;3.67;1.17;;;;;;;;;;10341980;28;20029;-58
2023/07/06 03:38:12;;;;;;;5.95;1.40;;;;;;;;;;10353218;28;20404;-60
2023/07/06 03:43:15;;;;;;;1.45;1.00;;;;;;;;;;10341637;28;20252;-58
2023/07/06 03:48:16;;;;;;;1.27;1.13;;;;;;;;;;10348512;28;20510;-58
2023/07/06 03:53:18;;;;;;;3.78;1.40;;;;;;;;;;10355028;28;20025;-59
2023/07/06 03:58:21;;;;;;;1.38;1.27;;;;;;;;;;10341351;28;20034;-58
2023/07/06 04:03:21;;;;;;;3.95;1.05;;;;;;;;;;10354035;28;20034;-57
2023/07/06 04:08:22;;;;;;;4.47;1.30;;;;;;;;;;10351023;28;20038;-58
2023/07/06 04:13:23;;;;;;;1.35;1.08;;;;;;;;;;10341598;28;20031;-58
2023/07/06 04:18:24;;;;;;;2.08;1.15;;;;;;;;;;10341996;28;20402;-58
2023/07/06 04:23:24;;;;;;;1.80;1.25;;;;;;;;;;10328640;28;20441;-59
2023/07/06 04:28:25;;;;;;;4.00;1.10;;;;;;;;;;10354694;28;20381;-58
2023/07/06 04:33:25;;;;;;;1.42;1.23;;;;;;;;;;10354599;28;20577;-58
2023/07/06 04:38:29;;;;;;;1.95;1.10;;;;;;;;;;10348271;28;20397;-58
2023/07/06 04:43:30;;;;;;;3.35;1.48;;;;;;;;;;10350849;28;20030;-58
2023/07/06 04:48:33;;;;;;;2.50;1.30;;;;;;;;;;10344497;28;20053;-58
2023/07/06 04:53:42;;;;;;;2.00;1.10;;;;;;;;;;10346907;28;20393;-60
2023/07/06 04:58:45;;;;;;;2.22;1.30;;;;;;;;;;10350096;28;20120;-58
2023/07/06 05:03:45;;;;;;;2.70;1.20;;;;;;;;;;10348476;28;20029;-58
2023/07/06 05:08:47;;;;;;;3.25;1.10;;;;;;;;;;10341512;28;20053;-59
2023/07/06 05:13:48;;;;;;;5.30;1.33;;;;;;;;;;10338357;28;20521;-59
2023/07/06 05:18:49;;;;;;;4.90;1.08;;;;;;;;;;10346492;28;20143;-60
2023/07/06 05:23:50;;;;;;;8.07;1.20;;;;;;;;;;10343429;28;20392;-60
2023/07/06 05:28:52;;;;;;;2.95;1.27;;;;;;;;;;10343632;28;20613;-58
2023/07/06 05:33:53;;;;;;;3.85;1.30;;;;;;;;;;10346554;28;20120;-60
2023/07/06 05:38:54;;;;;;;4.43;1.02;;;;;;;;;;10342245;28;20088;-57
2023/07/06 05:43:54;;;;;;;1.00;1.00;;;;;;;;;;10334694;28;20030;-58
2023/07/06 05:48:55;;;;;;;2.47;1.00;;;;;;;;;;10339198;28;20042;-58
2023/07/06 05:53:55;;;;;;;5.95;1.10;;;;;;;;;;10349999;28;20070;-58
2023/07/06 05:58:56;;;;;;;7.10;1.38;;;;;;;;;;10337090;28;20038;-57
2023/07/06 06:03:56;;;;;;;5.40;1.25;;;;;;;;;;10346997;28;20246;-59
2023/07/06 06:08:57;;;;;;;18.08;1.35;;;;;;;;;;10338835;28;20029;-60
2023/07/06 06:13:57;;;;;;;6.13;1.85;;;;;;;;;;10337975;28;20031;-58
2023/07/06 06:19:01;;;;;;;15.60;1.83;;;;;;;;;;10342308;28;20022;-60
2023/07/06 06:24:03;;;;;;;10.32;1.58;;;;;;;;;;10336328;28;20413;-60
2023/07/06 06:29:03;;;;;;;11.05;1.80;;;;;;;;;;10342145;28;20034;-60
2023/07/06 06:34:04;;;;;;;3.85;1.42;;;;;;;;;;10342457;28;20447;-60
2023/07/06 06:39:06;;;;;;;6.00;1.40;;;;;;;;;;10347923;28;20042;-61
2023/07/06 06:44:07;;;;;;;6.82;1.60;;;;;;;;;;10334234;28;20042;-60
2023/07/06 06:49:08;;;;;;;5.35;1.45;;;;;;;;;;10351436;28;20063;-61
2023/07/06 06:54:08;;;;;;;9.27;1.70;;;;;;;;;;10334942;28;20438;-60
2023/07/06 06:59:11;;;;;;;7.50;2.00;;;;;;;;;;10337065;28;20034;-61
2023/07/06 07:04:12;;;;;;;7.75;1.50;;;;;;;;;;10339135;28;20053;-60
2023/07/06 07:09:13;;;;;;;4.32;1.23;;;;;;;;;;10332780;28;20042;-60
2023/07/06 07:14:15;;;;;;;9.57;1.60;;;;;;;;;;10356578;28;20061;-60
2023/07/06 07:19:16;;;;;;;6.28;1.33;;;;;;;;;;10342999;28;20165;-60
2023/07/06 07:24:16;;;;;;;4.43;1.50;;;;;;;;;;10367168;28;20093;-60
2023/07/06 07:29:17;;;;;;;5.05;1.55;;;;;;;;;;10354517;28;20403;-61
2023/07/06 07:34:20;;;;;;;5.85;1.52;;;;;;;;;;10353166;28;20022;-60
2023/07/06 07:39:20;;;;;;;6.45;1.70;;;;;;;;;;10331996;28;20495;-60
2023/07/06 07:44:21;;;;;;;7.45;1.50;;;;;;;;;;10340154;28;20060;-60
2023/07/06 07:49:22;;;;;;;3.03;1.67;;;;;;;;;;10341591;28;20046;-60
2023/07/06 07:54:23;;;;;;;1.50;1.33;;;;;;;;;;10359462;28;20030;-59
2023/07/06 07:59:23;;;;;;;1.75;1.30;;;;;;;;;;10354444;28;20036;-59
2023/07/06 08:04:24;;;;;;;2.08;1.55;;;;;;;;;;10341904;28;20370;-59
2023/07/06 08:09:26;;;;;;;2.97;1.48;;;;;;;;;;10343117;28;20421;-60
2023/07/06 08:14:48;;;;;;;3.50;1.35;;;;;;;;;;10342404;28;20513;-59
2023/07/06 08:20:13;;;;;;;4.07;1.80;;;;;;;;;;10334159;28;20488;-60
2023/07/06 08:25:42;;;;;;;8.55;1.65;;;;;;;;;;10338310;28;20037;-60
2023/07/06 08:31:24;;;;;;;3.17;1.70;;;;;;;;;;10341422;28;20486;-60
2023/07/06 08:36:53;;;;;;;4.72;2.03;;;;;;;;;;10342214;28;20622;-60
2023/07/06 08:42:02;;;;;;;3.85;2.00;;;;;;;;;;10337863;28;20404;-60
2023/07/06 08:47:13;;;;;;;3.33;1.90;;;;;;;;;;10341973;28;20448;-60
2023/07/06 08:52:33;;;;;;;5.82;1.85;;;;;;;;;;10323310;28;20128;-60
2023/07/06 08:57:46;;;;;;;2.28;1.65;;;;;;;;;;10325511;28;20035;-60
2023/07/06 09:02:59;;;;;;;3.85;2.00;;;;;;;;;;10348641;28;20069;-60
2023/07/06 09:08:17;;;;;;;3.17;1.60;;;;;;;;;;10353925;28;20046;-60
2023/07/06 09:13:55;;;;;;;4.72;1.98;;;;;;;;;;10353088;28;20049;-60
2023/07/06 09:19:09;;;;;;;9.00;2.10;;;;;;;;;;10353761;28;20136;-60
2023/07/06 09:24:11;;;;;;;2.53;1.88;;;;;;;;;;10349034;28;20069;-60
2023/07/06 09:29:33;;;;;;;3.28;1.92;;;;;;;;;;10351455;28;20034;-60
2023/07/06 09:34:34;;;;;;;5.95;2.03;;;;;;;;;;10348744;28;20096;-60
2023/07/06 09:39:37;;;;;;;3.03;1.90;;;;;;;;;;10340941;28;20072;-60
2023/07/06 09:44:39;;;;;;;4.93;2.10;;;;;;;;;;10325045;28;20038;-60
2023/07/06 09:50:06;;;;;;;4.30;2.00;;;;;;;;;;10336619;28;20065;-60
2023/07/06 09:55:29;;;;;;;3.50;1.90;;;;;;;;;;10344780;28;20029;-60
2023/07/06 10:00:49;;;;;;;4.57;1.80;;;;;;;;;;10346289;28;20490;-60
2023/07/06 10:06:07;;;;;;;4.88;1.90;;;;;;;;;;10324154;28;20088;-60
2023/07/06 10:11:24;;;;;;;;;;;;;;;;;;10337806;28;20033;-60
2023/07/06 10:16:42;;;;;;;3.00;1.87;;;;;;;;;;10350252;28;19951;-60
2023/07/06 10:22:09;;;;;;;7.15;2.03;;;;;;;;;;10330282;28;20093;-60
2023/07/06 10:27:22;;;;;;;3.30;1.83;;;;;;;;;;10350365;28;20053;-60
2023/07/06 10:32:31;;;;;;;3.35;1.80;;;;;;;;;;10334384;28;20405;-59
2023/07/06 10:37:34;;;;;;;6.43;1.73;;;;;;;;;;10348078;28;20466;-60
2023/07/06 10:42:52;;;;;;;2.88;1.98;;;;;;;;;;10357741;28;20030;-60
2023/07/06 10:48:07;;;;;;;4.65;2.10;;;;;;;;;;10365200;28;20406;-59
2023/07/06 10:53:25;;;;;;;1.63;1.50;;;;;;;;;;10345254;28;20516;-60
2023/07/06 10:58:33;;;;;;;3.25;1.75;;;;;;;;;;10347865;28;20031;-60
2023/07/06 11:03:33;;;;;;;;;;;;;;;;;;10349726;28;20033;-60
2023/07/06 11:09:10;;;;;;;4.50;2.10;;;;;;;;;;10365740;28;19917;-60
2023/07/06 11:14:35;;;;;;;1.97;1.60;;;;;;;;;;10356136;28;20037;-60
2023/07/06 11:19:54;;;;;;;2.75;1.67;;;;;;;;;;10345720;28;20038;-60
2023/07/06 11:25:04;;;;;;;2.35;1.63;;;;;;;;;;10333947;28;20022;-60
2023/07/06 11:30:33;;;;;;;2.55;1.67;;;;;;;;;;10346629;28;20386;-60
2023/07/06 11:36:07;;;;;;;2.03;1.48;;;;;;;;;;10353092;28;20331;-59
2023/07/06 11:41:18;;;;;;;2.13;1.70;;;;;;;;;;10342304;28;20037;-60
2023/07/06 11:47:02;;;;;;;3.30;1.20;;;;;;;;;;10358917;28;20030;-59
2023/07/06 11:52:21;;;;;;;2.53;1.83;;;;;;;;;;10338838;28;20042;-60
2023/07/06 11:57:28;;;;;;;2.00;1.53;;;;;;;;;;10353287;28;20389;-61
2023/07/06 12:02:30;;;;;;;5.63;1.67;;;;;;;;;;10353119;28;20026;-61
2023/07/06 12:07:35;;;;;;;2.97;1.90;;;;;;;;;;10343429;28;20045;-61
2023/07/06 12:12:37;;;;;;;3.45;2.03;;;;;;;;;;10335626;28;20379;-60
2023/07/06 12:17:43;;;;;;;3.08;2.25;;;;;;;;;;10350891;28;20034;-60
2023/07/06 12:22:53;;;;;;;4.13;1.90;;;;;;;;;;10356683;28;20488;-60
2023/07/06 12:28:02;;;;;;;2.55;1.83;;;;;;;;;;10338471;28;20042;-60
2023/07/06 12:33:05;;;;;;;3.80;1.90;;;;;;;;;;10340580;28;20034;-60
2023/07/06 12:38:12;;;;;;;2.13;1.70;;;;;;;;;;10350652;28;20382;-60
2023/07/06 12:43:30;;;;;;;3.05;1.80;;;;;;;;;;10334527;28;20057;-60
2023/07/06 12:48:33;;;;;;;6.07;2.08;;;;;;;;;;10337010;28;20057;-60
2023/07/06 12:53:34;;;;;;;5.25;1.70;;;;;;;;;;10333529;28;20077;-60
2023/07/06 12:58:37;;;;;;;3.13;1.95;;;;;;;;;;10346941;28;20042;-60
2023/07/06 13:04:07;;;;;;;3.63;1.90;;;;;;;;;;10340547;28;20498;-60
2023/07/06 13:09:41;;;;;;;3.78;2.00;;;;;;;;;;10340410;28;20361;-60
2023/07/06 13:14:46;;;;;;;2.20;1.80;;;;;;;;;;10339375;28;20066;-60
2023/07/06 13:19:48;;;;;;;2.88;2.00;;;;;;;;;;10345383;28;20105;-60
2023/07/06 13:24:49;;;;;;;3.28;1.95;;;;;;;;;;10361546;28;20030;-60
2023/07/06 13:29:50;;;;;;;2.60;1.90;;;;;;;;;;10352036;28;20034;-60
2023/07/06 13:34:51;;;;;;;6.40;2.47;;;;;;;;;;10338176;28;20045;-60
2023/07/06 13:39:51;;;;;;;3.13;1.90;;;;;;;;;;10336569;28;20026;-59
2023/07/06 13:44:52;;;;;;;3.05;2.00;;;;;;;;;;10349794;28;20022;-60
2023/07/06 13:49:56;;;;;;;3.47;1.80;;;;;;;;;;10340283;28;20077;-60
2023/07/06 13:54:56;;;;;;;8.13;2.83;;;;;;;;;;10344850;28;20532;-60
2023/07/06 13:59:59;;;;;;;2.75;2.28;;;;;;;;;;10353505;28;20158;-60
2023/07/06 14:05:00;;;;;;;2.15;1.95;;;;;;;;;;10336235;28;20018;-60
2023/07/06 14:10:00;;;;;;;3.58;2.22;;;;;;;;;;10349697;28;20045;-60
2023/07/06 14:15:01;;;;;;;5.00;2.13;;;;;;;;;;10336227;28;20030;-60
2023/07/06 14:20:01;;;;;;;3.30;2.05;;;;;;;;;;10336622;28;20113;-60
2023/07/06 14:25:04;;;;;;;3.95;2.28;;;;;;;;;;10345152;28;20446;-60
2023/07/06 14:30:07;;;;;;;3.00;2.30;;;;;;;;;;10340297;28;20070;-59
2023/07/06 14:35:13;;;;;;;5.18;2.40;;;;;;;;;;10356314;28;20470;-60
2023/07/06 14:40:14;;;;;;;4.15;1.98;;;;;;;;;;10349126;28;20018;-60
2023/07/06 14:45:15;;;;;;;5.57;2.45;;;;;;;;;;10329029;28;20471;-59
2023/07/06 14:50:17;;;;;;;2.95;2.17;;;;;;;;;;10335838;28;20050;-59
2023/07/06 14:55:17;;;;;;;7.18;2.47;;;;;;;;;;10334955;28;20049;-60
2023/07/06 15:00:18;;;;;;;11.52;3.92;;;;;;;;;;10338026;28;20022;-60
2023/07/06 15:05:19;;;;;;;11.40;4.05;;;;;;;;;;10348754;28;20057;-59
2023/07/06 15:10:20;;;;;;;13.48;4.70;;;;;;;;;;10339431;28;20030;-59
2023/07/06 15:15:21;;;;;;;11.70;4.57;;;;;;;;;;10337720;28;20371;-60
2023/07/06 15:20:21;;;;;;;16.70;6.32;;;;;;;;;;10326486;28;20034;-59
2023/07/06 15:25:22;;;;;;;25.38;7.35;;;;;;;;;;10351136;28;20030;-60
2023/07/06 15:30:22;;;;;;;23.05;7.55;;;;;;;;;;10347323;28;20100;-60
2023/07/06 15:35:23;;;;;;;31.98;6.70;;;;;;;;;;10332757;28;20034;-59
2023/07/06 15:40:24;;;;;;;232.88;17.33;;;;;;;;;;10350051;28;20481;-63
2023/07/06 15:45:24;;;;;;;31.40;6.97;;;;;;;;;;10352936;28;20390;-63
2023/07/06 15:50:25;;;;;;;57.00;7.43;;;;;;;;;;10351656;28;20049;-59
2023/07/06 15:55:26;;;;;;;40.63;6.80;;;;;;;;;;10339439;28;20118;-56
2023/07/06 16:00:30;;;;;;;26.63;6.20;;;;;;;;;;10339325;28;20030;-58
2023/07/06 16:05:31;;;;;;;27.27;6.78;;;;;;;;;;10347016;28;20046;-59
2023/07/06 16:10:31;;;;;;;14.20;5.18;;;;;;;;;;10345002;28;20504;-60
2023/07/06 16:15:32;;;;;;;23.15;5.47;;;;;;;;;;10337236;28;20022;-60
2023/07/06 16:20:35;;;;;;;21.17;4.95;;;;;;;;;;10361539;28;20091;-58
2023/07/06 16:25:35;;;;;;;15.32;5.80;;;;;;;;;;10332647;28;20111;-58
2023/07/06 16:30:36;;;;;;;13.27;4.75;;;;;;;;;;10363646;28;20038;-59
2023/07/06 16:35:39;;;;;;;13.98;5.03;;;;;;;;;;10334789;28;20088;-58
2023/07/06 16:40:40;;;;;;;12.88;4.30;;;;;;;;;;10355670;28;20462;-58
2023/07/06 16:45:46;;;;;;;11.73;3.90;;;;;;;;;;10344804;28;20026;-58
2023/07/06 16:50:46;;;;;;;13.27;4.45;;;;;;;;;;10347430;28;20061;-59
2023/07/06 16:55:47;;;;;;;12.60;4.53;;;;;;;;;;10340444;28;20018;-56
2023/07/06 17:00:47;;;;;;;7.78;3.92;;;;;;;;;;10351770;28;20030;-56
2023/07/06 17:05:48;;;;;;;12.60;4.30;;;;;;;;;;10325382;28;20482;-58
2023/07/06 17:10:49;;;;;;;9.10;4.25;;;;;;;;;;10351013;28;20046;-58
2023/07/06 17:15:49;;;;;;;11.60;4.57;;;;;;;;;;10328440;28;20482;-58
2023/07/06 17:21:06;;;;;;;7.03;3.55;;;;;;;;;;10337938;28;20153;-59
2023/07/06 17:26:06;;;;;;;11.02;4.07;;;;;;;;;;10351397;28;20061;-59
2023/07/06 17:31:19;;;;;;;10.65;3.42;;;;;;;;;;10345506;28;20120;-56
2023/07/06 17:36:19;;;;;;;8.90;4.07;;;;;;;;;;10360979;28;20037;-56
2023/07/06 17:41:20;;;;;;;7.45;3.70;;;;;;;;;;10337096;28;20041;-58
2023/07/06 17:46:20;;;;;;;7.93;3.50;;;;;;;;;;10349484;28;20049;-58
2023/07/06 17:51:21;;;;;;;7.10;3.38;;;;;;;;;;10342525;28;20053;-58
2023/07/06 17:56:22;;;;;;;5.72;3.22;;;;;;;;;;10349621;28;20093;-58
2023/07/06 18:01:22;;;;;;;8.02;3.92;;;;;;;;;;10362779;28;20038;-55
2023/07/06 18:06:23;;;;;;;7.28;3.55;;;;;;;;;;10350493;28;20030;-57
2023/07/06 18:11:23;;;;;;;9.77;3.75;;;;;;;;;;10348275;28;20034;-58
2023/07/06 18:16:24;;;;;;;7.07;3.50;;;;;;;;;;10324982;28;20026;-58
2023/07/06 18:21:26;;;;;;;8.68;3.60;;;;;;;;;;10338345;28;20486;-58
2023/07/06 18:26:26;;;;;;;5.78;3.22;;;;;;;;;;10329320;28;20034;-58
2023/07/06 18:31:27;;;;;;;4.93;3.17;;;;;;;;;;10346725;28;20037;-58
2023/07/06 18:36:27;;;;;;;6.43;3.40;;;;;;;;;;10348796;28;20033;-58
2023/07/06 18:41:28;;;;;;;7.57;3.45;;;;;;;;;;10341254;28;20069;-57
2023/07/06 18:46:29;;;;;;;11.55;3.38;;;;;;;;;;10348848;28;20525;-57
2023/07/06 18:51:29;;;;;;;6.35;3.40;;;;;;;;;;10334519;28;20077;-57
2023/07/06 18:56:30;;;;;;;7.80;3.53;;;;;;;;;;10339292;28;20030;-58
2023/07/06 19:01:30;;;;;;;6.38;3.90;;;;;;;;;;10362528;28;20026;-58
2023/07/06 19:06:34;;;;;;;6.88;3.00;;;;;;;;;;10343408;28;20035;-58
2023/07/06 19:11:34;;;;;;;7.68;3.67;;;;;;;;;;10336651;28;20038;-58
2023/07/06 19:16:35;;;;;;;8.30;3.15;;;;;;;;;;10344625;28;20021;-59
2023/07/06 19:21:35;;;;;;;8.35;3.15;;;;;;;;;;10339404;28;20023;-56
2023/07/06 19:26:36;;;;;;;5.95;2.85;;;;;;;;;;10356007;28;20442;-57
2023/07/06 19:31:36;;;;;;;5.20;2.67;;;;;;;;;;10331485;28;20064;-58
2023/07/06 19:36:37;;;;;;;12.02;3.20;;;;;;;;;;10338057;28;20038;-56
2023/07/06 19:41:38;;;;;;;5.78;3.03;;;;;;;;;;10333352;28;20096;-56
2023/07/06 19:46:39;;;;;;;4.60;2.90;;;;;;;;;;10354031;28;20019;-59
2023/07/06 19:51:39;;;;;;;5.18;2.90;;;;;;;;;;10331665;28;20061;-57
2023/07/06 19:56:40;;;;;;;6.30;2.88;;;;;;;;;;10343435;28;20045;-56
2023/07/06 20:01:40;;;;;;;4.22;2.30;;;;;;;;;;10353545;28;20445;-56
2023/07/06 20:06:43;;;;;;;6.47;2.50;;;;;;;;;;10344532;28;20026;-57
2023/07/06 20:11:44;;;;;;;4.43;2.85;;;;;;;;;;10346121;28;20030;-57
2023/07/06 20:16:44;;;;;;;4.25;2.40;;;;;;;;;;10352082;28;20402;-57
2023/07/06 20:21:45;;;;;;;4.40;2.58;;;;;;;;;;10359623;28;20044;-56
2023/07/06 20:26:47;;;;;;;5.57;2.72;;;;;;;;;;10345350;28;20022;-55
2023/07/06 20:31:47;;;;;;;3.22;2.53;;;;;;;;;;10348424;28;20026;-54
2023/07/06 20:36:48;;;;;;;4.65;2.78;;;;;;;;;;10348892;28;20999;-56
2023/07/06 20:41:48;;;;;;;3.47;2.40;;;;;;;;;;10338287;28;20053;-57
2023/07/06 20:46:50;;;;;;;4.18;2.42;;;;;;;;;;10351396;28;20030;-56
2023/07/06 20:51:50;;;;;;;4.28;2.45;;;;;;;;;;10370592;28;20033;-57
2023/07/06 20:56:51;;;;;;;7.82;3.20;;;;;;;;;;10379599;28;20036;-58
2023/07/06 21:01:52;;;;;;;4.50;3.20;;;;;;;;;;10371624;28;20544;-57
2023/07/06 21:06:53;;;;;;;4.90;2.70;;;;;;;;;;10359838;28;20037;-57
2023/07/06 21:11:53;;;;;;;4.78;2.78;;;;;;;;;;10351513;28;20044;-55
2023/07/06 21:16:55;;;;;;;5.75;2.85;;;;;;;;;;10343475;28;20030;-55
2023/07/06 21:21:56;;;;;;;10.25;3.05;;;;;;;;;;10333270;28;20033;-54
2023/07/06 21:26:56;;;;;;;7.13;3.17;;;;;;;;;;10351911;28;20717;-55
2023/07/06 21:31:57;;;;;;;17.90;3.92;;;;;;;;;;10344036;28;20034;-56
2023/07/06 21:36:57;;;;;;;11.38;4.38;;;;;;;;;;10349850;28;20189;-56
2023/07/06 21:42:00;;;;;;;13.20;4.32;;;;;;;;;;10355791;28;20065;-56
2023/07/06 21:47:01;;;;;;;12.20;4.03;;;;;;;;;;10335854;28;20058;-56
2023/07/06 21:52:02;;;;;;;7.63;3.38;;;;;;;;;;10343898;28;20085;-57
2023/07/06 21:57:02;;;;;;;20.40;4.97;;;;;;;;;;10334834;28;20026;-58
2023/07/06 22:02:03;;;;;;;10.27;3.42;;;;;;;;;;10340618;28;20440;-57
2023/07/06 22:07:04;;;;;;;10.63;3.50;;;;;;;;;;10335002;28;20034;-56
2023/07/06 22:12:05;;;;;;;7.53;3.47;;;;;;;;;;10330915;28;20516;-56
2023/07/06 22:17:06;;;;;;;11.32;3.88;;;;;;;;;;10337346;28;20068;-56
2023/07/06 22:22:07;;;;;;;11.10;3.42;;;;;;;;;;10350578;28;20121;-56
2023/07/06 22:27:07;;;;;;;10.18;3.50;;;;;;;;;;10338062;28;20029;-56
2023/07/06 22:32:08;;;;;;;9.68;3.67;;;;;;;;;;10340073;28;20033;-56
2023/07/06 22:37:09;;;;;;;10.32;3.75;;;;;;;;;;10342036;28;20034;-57
2023/07/06 22:42:09;;;;;;;8.73;3.10;;;;;;;;;;10339352;28;20501;-56
2023/07/06 22:47:10;;;;;;;9.95;3.40;;;;;;;;;;10336865;28;20038;-56
2023/07/06 22:52:12;;;;;;;4.90;2.80;;;;;;;;;;10340660;28;20034;-56
2023/07/06 22:57:13;;;;;;;9.27;2.78;;;;;;;;;;10335866;28;20036;-56
2023/07/06 23:02:14;;;;;;;7.63;3.35;;;;;;;;;;10345436;28;20033;-56
2023/07/06 23:07:14;;;;;;;7.25;3.20;;;;;;;;;;10353241;28;20430;-57
2023/07/06 23:12:15;;;;;;;7.05;2.85;;;;;;;;;;10336264;28;20421;-58
2023/07/06 23:17:16;;;;;;;7.05;3.13;;;;;;;;;;10352993;28;20350;-58
2023/07/06 23:22:17;;;;;;;6.70;3.30;;;;;;;;;;10345618;28;20022;-61
2023/07/06 23:27:18;;;;;;;5.03;3.10;;;;;;;;;;10345062;28;20039;-58
2023/07/06 23:32:21;;;;;;;4.45;2.85;;;;;;;;;;10344515;28;20033;-58
2023/07/06 23:37:24;;;;;;;6.53;3.17;;;;;;;;;;10354055;28;20034;-58
2023/07/06 23:42:25;;;;;;;4.55;2.75;;;;;;;;;;10342642;28;20099;-59
2023/07/06 23:47:25;;;;;;;5.03;3.00;;;;;;;;;;10351224;28;20108;-59
2023/07/06 23:52:26;;;;;;;3.38;2.60;;;;;;;;;;10348362;28;20053;-58
2023/07/06 23:57:27;;;;;;;4.22;3.10;;;;;;;;;;10363567;28;20569;-58
